Time;durP1;ratioP1;P1;durP2;ratioP2;P2;SDS_P1;SDS_P2;PMS_P1;PMS_P2;Temp;Humidity;BMP_temperature;BMP_pressure;BME280_temperature;BME280_humidity;BME280_pressure;Samples;Min_cycle;Max_cycle;Signal;HPM_P1;HPM_P2
2021/12/04 00:00:24;;;;;;;36.47;24.35;;;5.60;92.80;;;;;;5050325;28;20051;-68
2021/12/04 00:02:50;;;;;;;41.65;24.33;;;5.50;93.20;;;;;;5049433;28;20033;-67
2021/12/04 00:05:17;;;;;;;35.85;22.92;;;5.50;93.20;;;;;;5031527;28;20161;-68
2021/12/04 00:07:44;;;;;;;40.40;24.42;;;5.60;93.20;;;;;;5048893;28;20052;-68
2021/12/04 00:10:13;;;;;;;44.17;24.65;;;5.60;93.20;;;;;;5049857;28;20069;-68
2021/12/04 00:12:39;;;;;;;40.40;24.65;;;5.60;93.20;;;;;;5048509;28;20044;-69
2021/12/04 00:15:05;;;;;;;40.58;25.23;;;5.60;93.20;;;;;;5048631;28;20048;-67
2021/12/04 00:17:31;;;;;;;41.13;25.50;;;5.60;93.20;;;;;;5049496;28;20036;-67
2021/12/04 00:19:56;;;;;;;42.40;24.52;;;5.60;93.20;;;;;;5049779;28;20056;-67
2021/12/04 00:22:22;;;;;;;47.80;26.45;;;5.60;93.20;;;;;;5049767;28;20033;-68
2021/12/04 00:24:48;;;;;;;39.97;24.60;;;5.60;93.10;;;;;;5032236;28;20037;-68
2021/12/04 00:27:13;;;;;;;41.47;24.50;;;5.60;93.20;;;;;;5049282;28;20099;-67
2021/12/04 00:29:39;;;;;;;43.35;25.23;;;5.60;93.10;;;;;;5042546;28;20045;-68
2021/12/04 00:32:14;;;;;;;42.65;25.63;;;5.60;93.10;;;;;;5044399;28;20052;-68
2021/12/04 00:34:44;;;;;;;42.95;23.08;;;5.60;93.10;;;;;;5049434;28;20127;-67
2021/12/04 00:50:33;;;;;;;48.97;25.27;;;5.60;93.20;;;;;;5048770;28;21190;-67
2021/12/04 00:52:59;;;;;;;53.80;27.98;;;5.60;93.20;;;;;;5030249;28;20569;-67
2021/12/04 00:55:25;;;;;;;45.28;25.85;;;5.60;93.20;;;;;;5042810;28;20103;-67
2021/12/04 00:57:50;;;;;;;47.70;24.83;;;5.60;93.10;;;;;;5038552;28;20037;-68
2021/12/04 01:00:16;;;;;;;46.67;24.80;;;5.60;93.10;;;;;;5040990;28;20051;-67
2021/12/04 01:02:43;;;;;;;51.95;26.90;;;5.60;93.20;;;;;;5029592;28;20509;-68
2021/12/04 01:05:09;;;;;;;47.90;27.25;;;5.60;93.10;;;;;;5034448;28;20048;-67
2021/12/04 01:07:34;;;;;;;47.80;25.50;;;5.60;93.10;;;;;;5043318;28;20084;-68
2021/12/04 01:10:01;;;;;;;45.85;26.52;;;5.60;93.00;;;;;;5048543;28;20076;-67
2021/12/04 01:12:27;;;;;;;54.58;26.10;;;5.60;93.10;;;;;;5046049;28;20037;-67
2021/12/04 01:14:52;;;;;;;43.20;25.65;;;5.60;93.10;;;;;;5047736;28;20053;-67
2021/12/04 01:17:18;;;;;;;54.13;25.55;;;5.60;93.00;;;;;;5041199;28;20410;-67
2021/12/04 01:19:44;;;;;;;61.30;26.13;;;5.60;93.00;;;;;;5041746;28;20041;-68
2021/12/04 01:22:10;;;;;;;48.60;24.70;;;5.60;93.10;;;;;;5048033;28;20135;-67
2021/12/04 01:24:35;;;;;;;48.03;24.48;;;5.60;93.00;;;;;;5043587;28;20037;-67
2021/12/04 01:27:01;;;;;;;53.47;25.50;;;5.60;93.10;;;;;;5033045;28;20095;-67
2021/12/04 01:29:27;;;;;;;48.13;25.80;;;5.60;93.10;;;;;;5036924;28;20033;-67
2021/12/04 01:31:52;;;;;;;59.50;28.10;;;5.60;93.10;;;;;;5034973;28;20075;-67
2021/12/04 01:34:18;;;;;;;62.38;28.77;;;5.60;93.10;;;;;;5041119;28;20049;-67
2021/12/04 01:36:44;;;;;;;46.58;25.77;;;5.60;93.10;;;;;;5045309;28;20655;-67
2021/12/04 01:39:12;;;;;;;61.50;28.30;;;5.60;93.10;;;;;;5036799;28;20049;-68
2021/12/04 01:41:38;;;;;;;43.95;24.75;;;5.60;93.10;;;;;;5027758;28;20041;-67
2021/12/04 01:44:06;;;;;;;45.28;28.55;;;5.60;93.00;;;;;;5037194;28;20029;-67
2021/12/04 01:46:31;;;;;;;46.83;25.92;;;5.60;93.00;;;;;;5043744;28;20045;-67
2021/12/04 01:48:57;;;;;;;43.70;25.00;;;5.60;93.00;;;;;;5047060;28;20366;-68
2021/12/04 01:51:24;;;;;;;38.10;24.23;;;5.60;93.00;;;;;;5051525;28;20505;-67
2021/12/04 01:53:49;;;;;;;44.70;25.83;;;5.60;92.90;;;;;;5051533;28;20041;-67
2021/12/04 01:56:16;;;;;;;55.58;25.30;;;5.60;92.90;;;;;;5052098;28;20051;-67
2021/12/04 01:58:42;;;;;;;46.67;25.50;;;5.60;92.90;;;;;;5045981;28;20048;-68
2021/12/04 02:01:09;;;;;;;51.58;25.50;;;5.60;92.90;;;;;;5049479;28;20037;-67
2021/12/04 02:03:35;;;;;;;55.00;25.08;;;5.60;92.90;;;;;;5024077;28;20066;-67
2021/12/04 02:06:01;;;;;;;53.55;25.88;;;5.60;92.90;;;;;;5047983;28;20033;-67
2021/12/04 02:08:27;;;;;;;48.13;25.00;;;5.60;92.90;;;;;;5046637;28;20163;-67
2021/12/04 02:10:56;;;;;;;51.28;23.88;;;5.60;92.90;;;;;;5050942;28;20520;-67
2021/12/04 02:13:22;;;;;;;45.58;23.52;;;5.60;92.90;;;;;;5051098;28;20041;-67
2021/12/04 02:15:48;;;;;;;48.78;25.08;;;5.60;92.90;;;;;;5044775;28;20040;-68
2021/12/04 02:18:16;;;;;;;45.28;25.08;;;5.60;92.90;;;;;;5040461;28;20030;-67
2021/12/04 02:20:42;;;;;;;46.60;26.17;;;5.60;92.90;;;;;;5051034;28;20040;-67
2021/12/04 02:23:09;;;;;;;39.88;24.83;;;5.60;92.80;;;;;;5050034;28;20097;-67
2021/12/04 02:25:36;;;;;;;41.97;23.50;;;5.60;92.80;;;;;;5050407;28;20106;-67
2021/12/04 02:28:03;;;;;;;50.47;24.05;;;5.60;92.80;;;;;;5027868;28;20045;-67
2021/12/04 02:30:33;;;;;;;47.20;22.85;;;5.60;92.70;;;;;;5040269;28;20410;-67
2021/12/04 02:32:59;;;;;;;43.10;23.60;;;5.60;92.80;;;;;;5051128;28;20510;-67
2021/12/04 02:35:25;;;;;;;47.42;22.98;;;5.60;92.80;;;;;;5048699;28;20072;-67
2021/12/04 02:37:52;;;;;;;40.55;21.98;;;5.60;92.80;;;;;;5051413;28;20124;-67
2021/12/04 02:40:21;;;;;;;41.78;22.27;;;5.60;92.70;;;;;;5050698;28;20072;-67
2021/12/04 02:42:47;;;;;;;40.20;21.88;;;5.60;92.70;;;;;;5050781;28;20045;-67
2021/12/04 02:45:15;;;;;;;44.83;22.27;;;5.50;92.70;;;;;;5051355;28;20084;-67
2021/12/04 02:47:41;;;;;;;39.78;22.95;;;5.50;92.70;;;;;;5050301;28;20048;-68
2021/12/04 02:50:09;;;;;;;42.83;22.83;;;5.60;92.70;;;;;;5051047;28;20171;-67
2021/12/04 02:52:36;;;;;;;36.53;21.70;;;5.50;92.70;;;;;;5051551;28;20048;-67
2021/12/04 02:55:03;;;;;;;36.47;22.75;;;5.50;92.60;;;;;;5037824;28;20144;-67
2021/12/04 02:57:29;;;;;;;38.72;20.92;;;5.50;92.70;;;;;;5046047;28;20111;-68
2021/12/04 02:59:55;;;;;;;40.60;22.20;;;5.50;92.60;;;;;;5048512;28;20478;-68
2021/12/04 03:02:22;;;;;;;45.35;21.95;;;5.50;92.70;;;;;;5048965;28;20036;-67
2021/12/04 03:04:49;;;;;;;45.05;22.25;;;5.50;92.70;;;;;;5048825;28;20045;-68
2021/12/04 03:07:16;;;;;;;39.88;20.65;;;5.50;92.60;;;;;;5032890;28;20044;-68
2021/12/04 03:09:42;;;;;;;41.85;22.13;;;5.50;92.70;;;;;;5049000;28;20049;-67
2021/12/04 03:12:09;;;;;;;39.83;21.58;;;5.50;92.70;;;;;;5051191;28;20198;-68
2021/12/04 03:14:35;;;;;;;43.33;22.27;;;5.50;92.60;;;;;;5049787;28;20128;-68
2021/12/04 03:17:01;;;;;;;38.72;21.67;;;5.50;92.70;;;;;;5045130;28;20159;-67
2021/12/04 03:19:27;;;;;;;44.65;21.38;;;5.50;92.70;;;;;;5048395;28;20080;-67
2021/12/04 03:21:54;;;;;;;38.22;21.30;;;5.50;92.70;;;;;;5050551;28;20553;-68
2021/12/04 03:24:20;;;;;;;36.30;20.15;;;5.50;92.60;;;;;;5050729;28;20037;-67
2021/12/04 03:26:49;;;;;;;41.08;21.77;;;5.60;92.60;;;;;;5032521;28;20083;-68
2021/12/04 03:29:19;;;;;;;33.47;20.38;;;5.60;92.60;;;;;;5047387;28;20163;-67
2021/12/04 03:40:21;;;;;;;43.42;20.08;;;5.60;92.60;;;;;;5048792;28;20098;-68
2021/12/04 03:42:46;;;;;;;43.03;20.83;;;5.60;92.60;;;;;;5050431;28;20556;-67
2021/12/04 03:45:12;;;;;;;34.80;19.95;;;5.60;92.60;;;;;;5048818;28;20053;-68
2021/12/04 03:47:42;;;;;;;33.17;19.52;;;5.60;92.70;;;;;;5048876;28;20110;-67
2021/12/04 03:50:08;;;;;;;33.65;19.65;;;5.60;92.60;;;;;;5040338;28;20076;-67
2021/12/04 03:52:36;;;;;;;37.95;18.67;;;5.60;92.50;;;;;;5036780;28;20456;-67
2021/12/04 03:55:04;;;;;;;45.78;19.92;;;5.60;92.60;;;;;;5048194;28;20037;-68
2021/12/04 03:57:30;;;;;;;33.55;20.02;;;5.60;92.50;;;;;;5049074;28;20103;-68
2021/12/04 03:59:56;;;;;;;43.40;19.17;;;5.60;92.50;;;;;;5046128;28;20034;-68
2021/12/04 04:02:21;;;;;;;31.83;19.65;;;5.60;92.50;;;;;;5029926;28;20103;-67
2021/12/04 04:04:47;;;;;;;37.15;20.92;;;5.60;92.50;;;;;;5041723;28;20087;-67
2021/12/04 04:07:13;;;;;;;29.92;17.75;;;5.60;92.50;;;;;;5048894;28;20037;-67
2021/12/04 04:09:38;;;;;;;41.20;20.30;;;5.60;92.50;;;;;;5049458;28;20103;-67
2021/12/04 04:12:05;;;;;;;41.10;19.17;;;5.60;92.40;;;;;;5049957;28;20088;-68
2021/12/04 04:14:30;;;;;;;43.60;18.27;;;5.60;92.50;;;;;;5045356;28;20042;-68
2021/12/04 04:16:57;;;;;;;37.45;18.30;;;5.60;92.50;;;;;;5047813;28;20114;-69
2021/12/04 04:19:24;;;;;;;42.03;22.17;;;5.60;92.50;;;;;;5048534;28;20041;-67
2021/12/04 04:21:56;;;;;;;38.13;20.73;;;5.60;92.50;;;;;;5049637;28;20072;-68
2021/12/04 04:24:23;;;;;;;32.60;19.45;;;5.60;92.50;;;;;;5037013;28;20049;-67
2021/12/04 04:26:49;;;;;;;37.85;19.92;;;5.60;92.40;;;;;;5048726;28;20041;-67
2021/12/04 04:29:15;;;;;;;39.25;21.42;;;5.60;92.50;;;;;;5048977;28;20445;-67
2021/12/04 04:31:52;;;;;;;34.33;20.20;;;5.70;92.40;;;;;;5035424;28;20103;-67
2021/12/04 04:34:26;;;;;;;40.00;20.42;;;5.70;92.40;;;;;;5032790;28;20084;-67
2021/12/04 04:37:07;;;;;;;39.97;19.20;;;5.70;92.50;;;;;;5039738;28;20054;-67
2021/12/04 05:12:29;;;;;;;32.92;18.40;;;5.80;92.40;;;;;;5048203;28;20060;-67
2021/12/04 05:14:57;;;;;;;33.50;18.08;;;5.80;92.40;;;;;;5040435;28;20828;-67
2021/12/04 05:17:56;;;;;;;36.60;18.67;;;5.70;92.40;;;;;;5047331;28;20056;-67
2021/12/04 05:20:31;;;;;;;35.58;18.98;;;5.80;92.40;;;;;;5048863;28;20187;-67
2021/12/04 05:22:58;;;;;;;39.33;18.92;;;5.80;92.40;;;;;;5029487;28;20556;-67
2021/12/04 05:25:23;;;;;;;33.72;18.88;;;5.80;92.40;;;;;;5032824;28;20045;-67
2021/12/04 05:27:49;;;;;;;49.25;22.17;;;5.90;92.40;;;;;;5038956;28;20402;-67
2021/12/04 05:30:15;;;;;;;37.10;19.52;;;5.90;92.40;;;;;;5022302;28;20696;-67
2021/12/04 05:32:40;;;;;;;39.03;18.70;;;5.90;92.30;;;;;;5048171;28;20052;-67
2021/12/04 05:35:06;;;;;;;39.88;17.23;;;6.00;92.30;;;;;;5047477;28;20037;-67
2021/12/04 05:37:32;;;;;;;38.75;18.58;;;6.00;92.30;;;;;;5045023;28;20115;-68
2021/12/04 05:39:57;;;;;;;33.92;18.33;;;5.90;92.20;;;;;;5048544;28;20053;-67
2021/12/04 05:42:23;;;;;;;36.80;18.10;;;5.90;92.20;;;;;;5048217;28;20181;-67
2021/12/04 05:44:49;;;;;;;42.22;19.35;;;5.90;92.10;;;;;;5030194;28;20454;-67
2021/12/04 05:47:21;;;;;;;35.10;18.83;;;6.00;92.10;;;;;;5048333;28;20114;-67
2021/12/04 05:55:19;;;;;;;38.33;18.17;;;6.00;92.10;;;;;;5042376;28;20053;-67
2021/12/04 05:57:44;;;;;;;35.87;17.07;;;6.00;92.00;;;;;;5048780;28;20049;-67
2021/12/04 06:00:18;;;;;;;37.83;19.13;;;5.90;92.00;;;;;;5044217;28;20033;-67
2021/12/04 06:02:43;;;;;;;53.65;18.55;;;5.90;92.10;;;;;;5047861;28;20508;-67
2021/12/04 06:05:09;;;;;;;39.88;17.70;;;5.90;92.10;;;;;;5032416;28;20037;-67
2021/12/04 06:07:35;;;;;;;35.08;18.73;;;5.90;92.00;;;;;;5048745;28;20048;-67
2021/12/04 06:10:00;;;;;;;39.47;17.63;;;5.90;92.10;;;;;;5043611;28;20041;-67
2021/12/04 06:12:26;;;;;;;37.42;18.58;;;5.90;92.10;;;;;;5028658;28;20107;-67
2021/12/04 06:14:52;;;;;;;46.92;18.17;;;5.90;92.10;;;;;;5030409;28;20533;-67
2021/12/04 06:17:19;;;;;;;41.40;19.02;;;5.90;92.00;;;;;;5026955;28;20048;-67
2021/12/04 06:22:37;;;;;;;39.15;18.13;;;5.90;92.10;;;;;;5031822;28;20124;-68
2021/12/04 06:25:14;;;;;;;52.90;18.50;;;5.90;92.10;;;;;;5046332;28;20045;-67
2021/12/04 06:27:40;;;;;;;42.85;18.20;;;5.90;92.10;;;;;;5043173;28;20038;-67
2021/12/04 06:30:08;;;;;;;40.15;18.23;;;5.90;92.10;;;;;;5039389;28;20044;-67
2021/12/04 06:32:37;;;;;;;36.33;18.88;;;5.90;92.00;;;;;;5041099;28;20049;-67
2021/12/04 06:35:05;;;;;;;42.10;19.25;;;5.90;92.00;;;;;;5049017;28;20406;-67
2021/12/04 06:37:31;;;;;;;42.83;20.50;;;5.90;92.10;;;;;;5041988;28;20128;-67
2021/12/04 06:39:57;;;;;;;39.15;19.00;;;5.90;92.10;;;;;;5049441;28;20243;-67
2021/12/04 06:42:23;;;;;;;47.78;19.23;;;5.90;92.00;;;;;;5036539;28;20060;-67
2021/12/04 06:44:51;;;;;;;42.08;21.40;;;6.00;92.10;;;;;;5031165;28;20593;-67
2021/12/04 06:47:17;;;;;;;44.55;18.88;;;5.90;92.10;;;;;;5034231;28;20045;-67
2021/12/04 06:49:43;;;;;;;40.28;18.75;;;5.90;92.10;;;;;;5037956;28;20116;-67
2021/12/04 06:52:15;;;;;;;40.63;20.13;;;6.00;92.10;;;;;;5049773;28;20098;-67
2021/12/04 06:54:49;;;;;;;39.38;19.17;;;6.00;92.00;;;;;;5047580;28;20049;-67
2021/12/04 06:57:14;;;;;;;37.42;19.35;;;6.00;92.10;;;;;;5033631;28;20049;-67
2021/12/04 06:59:41;;;;;;;31.60;18.40;;;6.00;92.10;;;;;;5042042;28;20397;-65
2021/12/04 07:02:07;;;;;;;40.05;18.85;;;6.00;92.10;;;;;;5048188;28;20087;-65
2021/12/04 07:04:37;;;;;;;39.75;19.85;;;6.00;92.10;;;;;;5049958;28;20482;-64
2021/12/04 07:07:05;;;;;;;54.33;17.45;;;5.90;92.00;;;;;;5042901;28;20029;-65
2021/12/04 07:09:30;;;;;;;47.50;20.38;;;5.90;92.00;;;;;;5049742;28;20409;-65
2021/12/04 07:11:57;;;;;;;38.20;19.15;;;5.90;92.00;;;;;;5050085;28;20047;-64
2021/12/04 07:14:23;;;;;;;41.42;19.42;;;5.90;92.00;;;;;;5050635;28;20048;-66
2021/12/04 07:16:48;;;;;;;35.80;18.15;;;5.90;92.00;;;;;;5050246;28;20053;-65
2021/12/04 07:19:14;;;;;;;40.28;18.25;;;5.90;92.00;;;;;;5043227;28;20043;-65
2021/12/04 07:21:40;;;;;;;36.42;18.85;;;5.90;91.90;;;;;;5047885;28;20045;-65
2021/12/04 07:24:06;;;;;;;42.88;21.27;;;5.90;91.90;;;;;;5050289;28;20638;-65
2021/12/04 07:26:31;;;;;;;37.67;18.42;;;5.80;92.00;;;;;;5050324;28;20122;-65
2021/12/04 07:28:57;;;;;;;35.88;18.60;;;5.80;92.00;;;;;;5051153;28;20047;-65
2021/12/04 07:31:23;;;;;;;47.15;19.33;;;5.80;92.10;;;;;;5048910;28;20111;-66
2021/12/04 07:33:50;;;;;;;34.72;17.52;;;5.80;92.10;;;;;;5049625;28;20076;-66
2021/12/04 07:36:16;;;;;;;57.00;20.42;;;5.80;92.10;;;;;;5041790;28;20068;-65
2021/12/04 07:38:41;;;;;;;36.20;19.20;;;5.80;92.10;;;;;;5049642;28;20489;-67
2021/12/04 07:41:08;;;;;;;47.97;20.90;;;5.80;92.10;;;;;;5049376;28;20057;-65
2021/12/04 07:43:34;;;;;;;45.28;19.27;;;5.90;92.10;;;;;;5050511;28;20052;-66
2021/12/04 07:45:59;;;;;;;91.30;19.30;;;5.90;92.10;;;;;;5049958;28;20040;-66
2021/12/04 07:48:25;;;;;;;47.60;18.83;;;7.50;96.50;;;;;;5049684;28;20179;-66
2021/12/04 07:50:51;;;;;;;51.28;17.80;;;7.20;93.20;;;;;;5049324;28;20508;-66
2021/12/04 07:53:16;;;;;;;40.30;17.77;;;6.90;92.70;;;;;;5049455;28;20037;-66
2021/12/04 07:55:42;;;;;;;40.17;17.02;;;6.70;92.30;;;;;;5048858;28;20383;-66
2021/12/04 07:58:08;;;;;;;55.13;18.48;;;6.50;92.00;;;;;;5049389;28;20040;-66
2021/12/04 08:00:33;;;;;;;36.83;18.40;;;6.40;91.80;;;;;;5048475;28;20513;-66
2021/12/04 08:03:01;;;;;;;59.35;18.08;;;6.20;91.60;;;;;;5043401;28;20060;-65
2021/12/04 08:05:28;;;;;;;33.75;17.60;;;6.20;91.50;;;;;;5035622;28;20045;-68
2021/12/04 08:07:56;;;;;;;29.95;16.45;;;6.10;91.60;;;;;;5049502;28;20505;-67
2021/12/04 08:10:22;;;;;;;62.75;16.65;;;6.00;91.60;;;;;;5050161;28;20044;-67
2021/12/04 08:12:49;;;;;;;38.78;18.88;;;6.00;91.60;;;;;;5049013;28;20098;-67
2021/12/04 08:15:17;;;;;;;42.80;18.83;;;5.90;91.70;;;;;;5031273;28;20059;-67
2021/12/04 08:17:43;;;;;;;32.95;18.17;;;5.90;91.60;;;;;;5049363;28;20048;-67
2021/12/04 08:20:12;;;;;;;47.40;17.73;;;5.90;91.70;;;;;;5050115;28;20079;-67
2021/12/04 08:22:38;;;;;;;41.83;18.27;;;5.90;91.80;;;;;;5049610;28;20044;-67
2021/12/04 08:25:04;;;;;;;39.40;17.52;;;5.80;91.80;;;;;;5049875;28;20486;-67
2021/12/04 08:27:29;;;;;;;38.47;17.38;;;5.80;91.80;;;;;;5049925;28;20086;-67
2021/12/04 08:29:55;;;;;;;33.38;17.10;;;5.70;91.90;;;;;;5049592;28;20049;-67
2021/12/04 08:32:24;;;;;;;32.95;17.80;;;5.70;91.90;;;;;;5048041;28;20045;-67
2021/12/04 08:34:53;;;;;;;31.45;16.55;;;5.80;92.00;;;;;;5049300;28;20513;-67
2021/12/04 08:37:19;;;;;;;34.85;16.27;;;5.70;92.00;;;;;;5048188;28;20127;-68
2021/12/04 08:39:45;;;;;;;40.30;18.05;;;5.80;92.00;;;;;;5048841;28;20041;-67
2021/12/04 08:42:11;;;;;;;33.90;16.70;;;5.80;92.10;;;;;;5049712;28;20055;-68
2021/12/04 08:44:38;;;;;;;35.47;17.02;;;5.70;92.10;;;;;;5049176;28;20080;-67
2021/12/04 08:47:04;;;;;;;43.72;17.92;;;5.80;92.20;;;;;;5049138;28;20763;-67
2021/12/04 08:49:32;;;;;;;48.45;17.40;;;5.80;92.10;;;;;;5048228;28;20037;-67
2021/12/04 08:51:58;;;;;;;32.97;16.52;;;5.80;92.20;;;;;;5048734;28;20458;-67
2021/12/04 08:54:23;;;;;;;36.40;15.55;;;5.70;92.00;;;;;;5047608;28;20083;-67
2021/12/04 08:56:49;;;;;;;35.35;15.27;;;5.70;92.20;;;;;;5031591;28;20092;-68
2021/12/04 08:59:15;;;;;;;27.77;16.38;;;5.70;92.20;;;;;;5049217;28;20040;-68
2021/12/04 09:01:43;;;;;;;62.63;18.65;;;5.70;92.20;;;;;;5048603;28;20049;-67
2021/12/04 09:04:30;;;;;;;44.75;16.35;;;5.70;92.20;;;;;;5049063;28;20069;-67
2021/12/04 09:06:57;;;;;;;37.83;15.25;;;5.70;92.30;;;;;;5049063;28;20497;-68
2021/12/04 09:09:27;;;;;;;32.47;15.63;;;5.70;92.40;;;;;;5049486;28;20604;-68
2021/12/04 09:11:59;;;;;;;30.08;14.82;;;5.70;92.30;;;;;;5048619;28;20498;-68
2021/12/04 09:14:27;;;;;;;31.75;16.00;;;5.70;92.20;;;;;;5049044;28;20049;-68
2021/12/04 09:16:55;;;;;;;28.52;15.98;;;5.70;92.20;;;;;;5031013;28;20576;-68
2021/12/04 09:19:22;;;;;;;29.45;15.85;;;5.60;92.30;;;;;;5047422;28;20120;-68
2021/12/04 09:21:49;;;;;;;33.83;14.93;;;5.70;92.30;;;;;;5049070;28;20053;-68
2021/12/04 09:24:17;;;;;;;36.47;16.48;;;5.70;92.20;;;;;;5048792;28;20045;-68
2021/12/04 10:00:06;;;;;;;29.45;16.38;;;5.60;92.50;;;;;;5047222;28;20072;-68
2021/12/04 10:13:05;;;;;;;34.75;16.80;;;5.70;92.50;;;;;;5051797;28;20052;-68
2021/12/04 10:34:27;;;;;;;31.42;16.05;;;5.70;92.40;;;;;;5051033;28;20041;-68
2021/12/04 10:36:53;;;;;;;33.70;16.38;;;5.80;92.40;;;;;;5031702;28;20502;-68
2021/12/04 10:39:20;;;;;;;35.42;16.98;;;5.80;92.30;;;;;;5035081;28;20049;-68
2021/12/04 10:41:47;;;;;;;25.20;14.52;;;5.80;92.30;;;;;;5049901;28;20047;-68
2021/12/04 10:44:18;;;;;;;23.63;14.43;;;5.80;92.30;;;;;;5051897;28;20049;-68
2021/12/04 10:47:04;;;;;;;26.05;13.43;;;5.90;92.30;;;;;;5050126;28;20044;-68
2021/12/04 10:49:45;;;;;;;30.13;15.10;;;5.90;92.30;;;;;;5051537;28;20127;-68
2021/12/04 10:55:33;;;;;;;27.08;15.43;;;6.00;92.10;;;;;;5048625;28;20226;-68
2021/12/04 11:01:25;;;;;;;28.13;16.13;;;5.90;92.10;;;;;;5048531;28;20078;-68
2021/12/04 11:34:52;;;;;;;34.95;16.40;;;6.10;92.20;;;;;;5047398;28;20048;-71
2021/12/04 11:37:20;;;;;;;27.83;16.55;;;6.20;91.90;;;;;;5049014;28;20517;-69
2021/12/04 11:40:07;;;;;;;26.48;14.93;;;6.20;91.80;;;;;;5044748;28;20497;-69
2021/12/04 11:42:44;;;;;;;28.70;15.93;;;6.20;91.80;;;;;;5043027;28;20125;-69
2021/12/04 11:45:41;;;;;;;27.23;14.88;;;6.30;91.70;;;;;;5034923;28;20615;-69
2021/12/04 11:48:03;;;;;;;28.88;15.40;;;6.20;91.60;;;;;;5053388;28;20119;-69
2021/12/04 11:50:37;;;;;;;30.95;15.10;;;6.20;91.60;;;;;;5033785;28;20045;-69
2021/12/04 11:53:11;;;;;;;27.92;17.13;;;6.20;91.60;;;;;;5043857;28;20846;-69
2021/12/04 11:55:40;;;;;;;28.10;14.40;;;6.20;91.60;;;;;;5049438;28;20090;-74
2021/12/04 11:58:25;;;;;;;25.38;14.07;;;6.80;93.00;;;;;;5050313;28;20037;-69
2021/12/04 12:00:54;;;;;;;26.92;14.10;;;6.90;91.80;;;;;;5049310;28;20045;-73
2021/12/04 12:03:26;;;;;;;19.02;10.90;;;6.80;91.00;;;;;;5049157;28;20128;-73
2021/12/04 12:06:01;;;;;;;27.15;14.70;;;7.50;91.60;;;;;;5049427;28;20052;-68
2021/12/04 12:08:31;;;;;;;29.50;15.95;;;7.90;90.60;;;;;;5050374;28;20064;-67
2021/12/04 12:11:07;;;;;;;26.13;14.60;;;7.80;89.30;;;;;;5049761;28;20048;-67
2021/12/04 12:13:37;;;;;;;26.60;14.88;;;7.50;88.80;;;;;;5049365;28;20080;-67
2021/12/04 12:16:08;;;;;;;26.60;15.40;;;7.20;88.60;;;;;;5048988;28;20429;-67
2021/12/04 12:18:49;;;;;;;24.73;14.00;;;7.10;89.10;;;;;;5048959;28;20052;-67
2021/12/04 12:21:18;;;;;;;24.30;15.95;;;6.90;89.40;;;;;;5048491;28;20103;-67
2021/12/04 12:36:04;;;;;;;25.42;14.27;;;6.70;90.50;;;;;;5048883;28;20061;-66
2021/12/04 12:38:53;;;;;;;24.27;13.85;;;6.80;90.40;;;;;;5049070;28;20073;-66
2021/12/04 12:41:37;;;;;;;20.95;13.23;;;6.80;90.20;;;;;;5047993;28;20072;-67
2021/12/04 12:44:08;;;;;;;24.30;15.00;;;6.80;90.20;;;;;;5049155;28;20037;-67
2021/12/04 12:46:53;;;;;;;23.50;13.23;;;6.70;90.20;;;;;;5048988;28;20505;-67
2021/12/04 12:49:38;;;;;;;25.90;14.10;;;6.60;90.10;;;;;;5048643;28;20052;-66
2021/12/04 12:52:13;;;;;;;23.80;13.95;;;6.60;90.20;;;;;;5048623;28;20044;-66
2021/12/04 12:54:55;;;;;;;21.90;13.88;;;6.60;90.40;;;;;;5048955;28;20051;-66
2021/12/04 12:57:26;;;;;;;25.33;13.38;;;6.60;90.40;;;;;;5047295;28;20498;-66
2021/12/04 13:14:14;;;;;;;24.17;13.93;;;6.60;90.50;;;;;;5048700;28;20045;-67
2021/12/04 13:16:47;;;;;;;23.65;14.55;;;6.60;90.70;;;;;;5046941;28;20089;-67
2021/12/04 13:19:15;;;;;;;27.00;15.82;;;6.60;90.70;;;;;;5028447;28;20041;-67
2021/12/04 13:21:44;;;;;;;31.73;17.27;;;6.60;90.70;;;;;;5048834;28;20044;-67
2021/12/04 13:24:12;;;;;;;24.75;14.60;;;6.60;90.70;;;;;;5023297;28;20069;-68
2021/12/04 13:26:43;;;;;;;24.40;15.18;;;6.60;90.70;;;;;;5041955;28;20072;-67
2021/12/04 13:29:09;;;;;;;25.80;14.27;;;6.60;90.80;;;;;;5048292;28;20444;-67
2021/12/04 13:31:39;;;;;;;29.88;14.55;;;6.60;90.60;;;;;;5048304;28;20037;-67
2021/12/04 13:34:07;;;;;;;21.27;14.38;;;6.60;90.60;;;;;;5042432;28;20565;-68
2021/12/04 13:36:33;;;;;;;25.92;14.73;;;6.60;90.60;;;;;;5047248;28;20060;-69
2021/12/04 13:39:09;;;;;;;24.33;14.50;;;6.50;90.60;;;;;;5047627;28;20516;-67
2021/12/04 13:41:36;;;;;;;26.35;14.93;;;6.50;90.80;;;;;;5046110;28;20086;-67
2021/12/04 13:44:05;;;;;;;24.27;14.40;;;6.60;90.80;;;;;;5052524;28;20041;-67
2021/12/04 13:46:45;;;;;;;24.80;14.90;;;6.50;90.70;;;;;;5052070;28;20087;-67
2021/12/04 13:49:14;;;;;;;26.88;13.85;;;6.60;90.80;;;;;;5052455;28;20053;-67
2021/12/04 13:51:40;;;;;;;34.03;14.30;;;6.50;90.70;;;;;;5040085;28;20053;-67
2021/12/04 13:54:06;;;;;;;26.08;12.82;;;6.40;90.70;;;;;;5043568;28;20037;-67
2021/12/04 13:56:33;;;;;;;24.05;13.95;;;6.30;90.70;;;;;;5030242;28;20104;-67
2021/12/04 13:59:03;;;;;;;24.77;13.73;;;6.30;90.90;;;;;;5051860;28;20049;-68
2021/12/04 14:01:31;;;;;;;24.10;13.55;;;6.30;91.00;;;;;;5051653;28;20344;-67
2021/12/04 14:04:02;;;;;;;23.90;13.90;;;6.30;91.10;;;;;;5042954;28;20102;-68
2021/12/04 14:06:28;;;;;;;23.13;13.10;;;6.30;91.00;;;;;;5050486;28;20068;-67
2021/12/04 14:09:01;;;;;;;26.52;14.38;;;6.40;91.00;;;;;;5051624;28;20071;-67
2021/12/04 14:11:29;;;;;;;26.20;13.90;;;6.40;91.00;;;;;;5044449;28;20466;-67
2021/12/04 14:13:55;;;;;;;29.52;14.77;;;6.40;90.90;;;;;;5051993;28;20045;-67
2021/12/04 14:16:27;;;;;;;27.70;15.68;;;6.30;90.90;;;;;;5051511;28;20037;-67
2021/12/04 14:18:53;;;;;;;;;;;6.30;91.10;;;;;;5052032;28;20045;-67
2021/12/04 14:21:20;;;;;;;31.20;15.82;;;6.20;90.90;;;;;;5050305;28;19927;-67
2021/12/04 14:23:50;;;;;;;28.83;14.70;;;6.30;91.10;;;;;;5050409;28;20502;-67
2021/12/04 14:26:16;;;;;;;27.15;15.73;;;6.30;91.10;;;;;;5050585;28;20091;-67
2021/12/04 14:28:44;;;;;;;34.10;17.40;;;6.30;91.20;;;;;;5051347;28;20064;-68
2021/12/04 14:31:11;;;;;;;32.83;14.48;;;6.30;91.10;;;;;;5051082;28;20462;-68
2021/12/04 14:33:39;;;;;;;26.67;14.25;;;6.30;91.10;;;;;;5047279;28;20309;-68
2021/12/04 14:36:06;;;;;;;31.95;15.00;;;6.40;91.20;;;;;;5044719;28;20131;-70
2021/12/04 14:38:32;;;;;;;27.25;14.85;;;6.40;91.10;;;;;;5050380;28;20056;-68
2021/12/04 14:40:59;;;;;;;29.50;15.40;;;6.40;91.10;;;;;;5050840;28;20041;-68
2021/12/04 14:43:28;;;;;;;34.47;15.93;;;6.40;91.10;;;;;;5050415;28;20048;-68
2021/12/04 14:45:57;;;;;;;28.20;14.55;;;6.40;91.00;;;;;;5049616;28;20405;-68
2021/12/04 14:48:26;;;;;;;36.42;16.23;;;6.50;91.10;;;;;;5050696;28;20053;-68
2021/12/04 14:51:02;;;;;;;36.13;16.88;;;6.50;91.10;;;;;;5050764;28;20041;-68
2021/12/04 14:53:28;;;;;;;32.95;16.80;;;6.50;91.00;;;;;;5046335;28;20041;-68
2021/12/04 14:55:54;;;;;;;37.42;17.58;;;6.50;91.00;;;;;;5051877;28;20053;-68
2021/12/04 14:58:22;;;;;;;34.15;15.27;;;6.40;90.90;;;;;;5050255;28;20044;-68
2021/12/04 15:00:58;;;;;;;31.15;15.65;;;6.40;91.10;;;;;;5046089;28;20080;-67
2021/12/04 15:03:35;;;;;;;31.17;16.13;;;6.50;91.10;;;;;;5046194;28;20049;-67
2021/12/04 15:06:04;;;;;;;32.28;16.95;;;6.50;91.00;;;;;;5037332;28;20076;-68
2021/12/04 15:08:33;;;;;;;35.78;17.02;;;6.50;90.90;;;;;;5046200;28;20049;-68
2021/12/04 15:11:10;;;;;;;36.72;17.52;;;6.50;90.90;;;;;;5050841;28;20029;-67
2021/12/04 15:13:42;;;;;;;35.03;14.95;;;6.50;91.00;;;;;;5049717;28;20511;-67
2021/12/04 15:16:10;;;;;;;;;;;6.50;91.00;;;;;;5051486;28;20087;-67
2021/12/04 15:18:39;;;;;;;36.97;16.58;;;6.40;90.80;;;;;;5050501;28;19967;-67
2021/12/04 15:21:15;;;;;;;33.20;14.90;;;6.40;91.00;;;;;;5048494;28;20041;-67
2021/12/04 15:23:52;;;;;;;32.20;16.33;;;6.50;91.00;;;;;;5032719;28;20163;-67
2021/12/04 15:26:20;;;;;;;38.85;16.02;;;6.50;91.10;;;;;;5049848;28;20052;-67
2021/12/04 15:28:49;;;;;;;35.65;15.05;;;6.50;91.00;;;;;;5039435;28;20029;-67
2021/12/04 15:31:16;;;;;;;38.53;16.63;;;6.50;91.00;;;;;;5044678;28;20045;-67
2021/12/04 15:33:46;;;;;;;34.22;14.40;;;6.50;91.00;;;;;;5046780;28;20135;-67
2021/12/04 15:36:27;;;;;;;33.00;16.23;;;6.60;91.00;;;;;;5048893;28;20045;-66
2021/12/04 15:38:56;;;;;;;39.83;17.92;;;6.60;91.10;;;;;;5049617;28;20051;-66
2021/12/04 15:44:32;;;;;;;35.03;16.95;;;6.60;91.10;;;;;;5049530;28;20533;-66
2021/12/04 15:48:05;;;;;;;33.72;15.23;;;6.60;91.00;;;;;;5048359;28;20049;-67
2021/12/04 15:52:50;;;;;;;40.17;16.65;;;6.60;91.10;;;;;;5046828;28;20571;-66
2021/12/04 15:55:21;;;;;;;33.35;15.57;;;6.70;91.10;;;;;;5034144;28;20476;-66
2021/12/04 15:57:55;;;;;;;39.43;17.47;;;6.60;90.90;;;;;;5041312;28;20048;-66
2021/12/04 16:00:23;;;;;;;31.50;16.10;;;6.70;91.00;;;;;;5049511;28;20784;-66